Time;durP1;ratioP1;P1;durP2;ratioP2;P2;SDS_P1;SDS_P2;PMS_P1;PMS_P2;Temp;Humidity;BMP_temperature;BMP_pressure;BME280_temperature;BME280_humidity;BME280_pressure;Samples;Min_cycle;Max_cycle;Signal;HPM_P1;HPM_P2
2022/12/01 00:01:06;;;;;;;38.9;21.7;;;;;;;3.22;95.58789;939.5045;;;;
2022/12/01 00:03:36;;;;;;;40.2;21.8;;;;;;;3.19;95.88477;939.481;;;;
2022/12/01 00:06:01;;;;;;;42.2;22.9;;;;;;;3.11;96.53906;939.4135;;;;
2022/12/01 00:11:46;;;;;;;40.6;22;;;;;;;3.27;96.21484;939.3734;;;;
2022/12/01 00:14:15;;;;;;;41.4;22.6;;;;;;;3.31;95.9873;939.282;;;;
2022/12/01 00:17:00;;;;;;;42.8;22.5;;;;;;;3.31;95.65039;939.3529;;;;
2022/12/01 00:19:37;;;;;;;38.7;20.8;;;;;;;3.44;95.1416;939.3109;;;;
2022/12/01 00:22:16;;;;;;;38.1;21.4;;;;;;;3.42;94.89063;939.329;;;;
2022/12/01 00:24:47;;;;;;;37.2;21.2;;;;;;;3.4;94.9209;939.3267;;;;
2022/12/01 00:27:12;;;;;;;37.8;21;;;;;;;3.32;95.14063;939.2662;;;;
2022/12/01 00:29:41;;;;;;;37.4;20.6;;;;;;;3.39;95.30078;939.2167;;;;
2022/12/01 00:32:06;;;;;;;35.4;20.4;;;;;;;3.38;95.15234;939.1905;;;;
2022/12/01 00:34:31;;;;;;;39.1;21;;;;;;;3.47;94.80176;939.342;;;;
2022/12/01 00:36:57;;;;;;;36;20.9;;;;;;;3.53;94.54395;939.331;;;;
2022/12/01 00:39:23;;;;;;;35.4;20.6;;;;;;;3.46;94.37305;939.2922;;;;
2022/12/01 00:41:49;;;;;;;37.6;20.9;;;;;;;3.45;94.77539;939.3208;;;;
2022/12/01 00:44:15;;;;;;;36.3;20.2;;;;;;;3.5;94.69531;939.3155;;;;
2022/12/01 00:46:40;;;;;;;36.9;20.1;;;;;;;3.43;94.62305;939.3468;;;;
2022/12/01 00:49:06;;;;;;;34.3;20.3;;;;;;;3.45;94.64063;939.3869;;;;
2022/12/01 00:51:34;;;;;;;34.2;20.3;;;;;;;3.44;94.57129;939.3206;;;;
2022/12/01 00:54:00;;;;;;;33.6;20.6;;;;;;;3.37;94.74609;939.3315;;;;
2022/12/01 00:56:26;;;;;;;37.1;20.8;;;;;;;3.31;95.16113;939.2974;;;;
2022/12/01 00:58:51;;;;;;;36.2;19.9;;;;;;;3.47;95.02441;939.2231;;;;
2022/12/01 01:01:16;;;;;;;37.9;21;;;;;;;3.54;94.78223;939.2855;;;;
2022/12/01 01:03:42;;;;;;;35.2;20.5;;;;;;;3.58;94.37695;939.2422;;;;
2022/12/01 01:06:27;;;;;;;39.1;20.7;;;;;;;3.67;94.03711;939.3284;;;;
2022/12/01 01:08:54;;;;;;;37.7;20.1;;;;;;;3.71;93.6748;939.2913;;;;
2022/12/01 01:11:19;;;;;;;41.6;21.7;;;;;;;3.75;93.59668;939.3513;;;;
2022/12/01 01:13:46;;;;;;;38.4;21.6;;;;;;;3.63;93.5127;939.3225;;;;
2022/12/01 01:16:11;;;;;;;40.7;21.4;;;;;;;3.74;93.4668;939.3192;;;;
2022/12/01 01:18:37;;;;;;;38.3;22;;;;;;;3.64;93.34375;939.2849;;;;
2022/12/01 01:21:44;;;;;;;41.5;22.8;;;;;;;3.55;93.34668;939.2756;;;;
2022/12/01 01:24:14;;;;;;;40.6;22.6;;;;;;;3.42;94.64355;939.2504;;;;
2022/12/01 01:26:39;;;;;;;43.8;23;;;;;;;3.53;94.44336;939.1955;;;;
2022/12/01 01:29:06;;;;;;;44.9;22.8;;;;;;;3.56;94.53027;939.2346;;;;
2022/12/01 01:31:30;;;;;;;42.1;23.4;;;;;;;3.49;94.49316;939.2533;;;;
2022/12/01 01:33:57;;;;;;;44.6;23.2;;;;;;;3.55;94.52832;939.264;;;;
2022/12/01 01:36:22;;;;;;;44.3;23.5;;;;;;;3.62;94.27246;939.2322;;;;
2022/12/01 01:38:52;;;;;;;43.4;22.8;;;;;;;3.47;94.37695;939.2321;;;;
2022/12/01 01:41:15;;;;;;;45.2;22.7;;;;;;;3.62;94.42969;939.1692;;;;
2022/12/01 01:43:43;;;;;;;45.1;24.6;;;;;;;3.65;94.04395;939.2634;;;;
2022/12/01 01:46:08;;;;;;;43.1;22.5;;;;;;;3.51;94.38281;939.267;;;;
2022/12/01 01:48:36;;;;;;;42.4;23.1;;;;;;;3.63;94.36621;939.1808;;;;
2022/12/01 01:51:01;;;;;;;45.6;23.7;;;;;;;3.35;94.86328;939.2065;;;;
2022/12/01 01:53:26;;;;;;;45;23.8;;;;;;;3.43;95.4541;939.2028;;;;
2022/12/01 01:55:54;;;;;;;46.1;23.8;;;;;;;3.5;95.38086;939.2008;;;;
2022/12/01 01:58:19;;;;;;;46.4;23.6;;;;;;;3.56;95.12305;939.1297;;;;
2022/12/01 02:00:44;;;;;;;42.6;22.7;;;;;;;3.59;94.82813;939.2033;;;;
2022/12/01 02:03:09;;;;;;;41.8;22.9;;;;;;;3.71;94.34863;939.1875;;;;
2022/12/01 02:05:37;;;;;;;43.3;23.4;;;;;;;3.75;94.10254;939.1591;;;;
2022/12/01 02:08:02;;;;;;;43.1;22.7;;;;;;;3.74;93.83984;939.2202;;;;
2022/12/01 02:10:28;;;;;;;39.8;22.9;;;;;;;3.81;93.65137;939.2709;;;;
2022/12/01 02:12:54;;;;;;;47;23.2;;;;;;;3.81;93.53906;939.2566;;;;
2022/12/01 02:15:21;;;;;;;44.6;22;;;;;;;3.76;93.38281;939.1483;;;;
2022/12/01 02:17:48;;;;;;;42.2;23;;;;;;;3.72;93.63184;939.2192;;;;
2022/12/01 02:20:18;;;;;;;42.4;23.5;;;;;;;3.73;93.74609;939.1983;;;;
2022/12/01 02:22:43;;;;;;;41.5;22.5;;;;;;;3.63;93.90527;939.1445;;;;
2022/12/01 02:25:09;;;;;;;44.1;23.7;;;;;;;3.53;94.56641;939.1972;;;;
2022/12/01 02:28:18;;;;;;;41.1;23.5;;;;;;;3.51;94.75391;939.1688;;;;
2022/12/01 02:30:43;;;;;;;41.9;22.4;;;;;;;3.63;94.70313;939.113;;;;
2022/12/01 02:33:08;;;;;;;45.1;24;;;;;;;3.51;94.87695;939.1309;;;;
2022/12/01 02:35:50;;;;;;;39.2;21.3;;;;;;;3.51;94.53125;939.1705;;;;
2022/12/01 02:38:16;;;;;;;42.9;22.4;;;;;;;3.48;94.91602;939.1834;;;;
2022/12/01 02:40:42;;;;;;;44.8;23.3;;;;;;;3.58;94.3877;939.1833;;;;
2022/12/01 02:43:07;;;;;;;43.8;23;;;;;;;3.65;94.23535;939.1316;;;;
2022/12/01 02:45:32;;;;;;;43;22.5;;;;;;;3.68;94.25293;939.1691;;;;
2022/12/01 02:47:57;;;;;;;40.3;23.1;;;;;;;3.75;93.96484;939.1542;;;;
2022/12/01 02:50:23;;;;;;;44.4;22.8;;;;;;;3.72;93.82422;939.1831;;;;
2022/12/01 02:52:50;;;;;;;42;22.2;;;;;;;3.72;93.67871;939.1303;;;;
2022/12/01 02:55:15;;;;;;;44.8;22.1;;;;;;;3.72;93.93652;939.1895;;;;
2022/12/01 02:57:43;;;;;;;41.9;22.7;;;;;;;3.78;93.67871;939.183;;;;
2022/12/01 03:00:12;;;;;;;41.6;22.3;;;;;;;3.81;93.44922;939.1259;;;;
2022/12/01 03:02:40;;;;;;;40.1;21.3;;;;;;;3.79;93.3125;939.1558;;;;
2022/12/01 03:04:58;;;;;;;40.3;23.3;;;;;;;3.56;94.19336;939.073;;;;
2022/12/01 03:07:25;;;;;;;43.2;21.7;;;;;;;3.63;94.02734;939.1656;;;;
2022/12/01 03:09:50;;;;;;;40.5;20.7;;;;;;;3.71;93.66309;939.1803;;;;
2022/12/01 03:12:15;;;;;;;40;22.6;;;;;;;3.67;93.54297;939.1135;;;;
2022/12/01 03:14:40;;;;;;;42;22.1;;;;;;;3.67;93.59863;939.1473;;;;
2022/12/01 03:17:05;;;;;;;42;22.1;;;;;;;3.7;93.61621;939.146;;;;
2022/12/01 03:19:30;;;;;;;41.2;22;;;;;;;3.77;93.46387;939.0723;;;;
2022/12/01 03:21:55;;;;;;;40.9;21.8;;;;;;;3.79;93.27637;939.1579;;;;
2022/12/01 03:26:46;;;;;;;38.6;20.5;;;;;;;3.72;92.70996;939.0617;;;;
2022/12/01 03:29:15;;;;;;;36.3;19.9;;;;;;;3.77;92.86621;939.1099;;;;
2022/12/01 03:31:41;;;;;;;37.4;20.4;;;;;;;3.78;92.76855;939.1181;;;;
2022/12/01 03:34:05;;;;;;;41.7;21.9;;;;;;;3.86;92.69629;939.1205;;;;
2022/12/01 03:37:26;;;;;;;37.3;21.1;;;;;;;3.86;92.4043;939.0748;;;;
2022/12/01 03:39:50;;;;;;;39;21.4;;;;;;;3.61;92.85449;939.0223;;;;
2022/12/01 03:42:15;;;;;;;39.2;21.7;;;;;;;3.46;93.55176;938.9802;;;;
2022/12/01 03:44:41;;;;;;;43.3;22.3;;;;;;;3.5;93.99902;939.0385;;;;
2022/12/01 03:47:08;;;;;;;42.8;22.7;;;;;;;3.59;93.72754;939.0678;;;;
2022/12/01 03:49:33;;;;;;;42.1;22.3;;;;;;;3.55;93.65137;939.1089;;;;
2022/12/01 03:51:58;;;;;;;40.4;21.9;;;;;;;3.53;93.74707;939.1239;;;;
2022/12/01 03:54:23;;;;;;;44.1;23.9;;;;;;;3.61;93.59668;939.1099;;;;
2022/12/01 03:56:48;;;;;;;43.6;23.1;;;;;;;3.63;93.36426;939.1082;;;;
2022/12/01 03:59:13;;;;;;;43.1;22.9;;;;;;;3.56;93.30371;939.0879;;;;
2022/12/01 04:02:31;;;;;;;43;23.2;;;;;;;3.54;93.44531;939.158;;;;
2022/12/01 04:04:56;;;;;;;45.1;23.8;;;;;;;3.57;93.45313;939.1497;;;;
2022/12/01 04:07:23;;;;;;;42;23.3;;;;;;;3.65;93.34766;939.1199;;;;
2022/12/01 04:09:48;;;;;;;41;22.6;;;;;;;3.7;93.13281;939.1451;;;;
2022/12/01 04:12:31;;;;;;;42.1;23.9;;;;;;;3.7;92.9668;939.0681;;;;
2022/12/01 04:14:40;;;;;;;39;22.2;;;;;;;3.74;92.60156;939.1418;;;;
2022/12/01 04:17:05;;;;;;;42.5;23.2;;;;;;;3.74;92.42188;939.1428;;;;
2022/12/01 04:19:31;;;;;;;42.7;22.7;;;;;;;3.77;92.18457;939.0937;;;;
2022/12/01 04:21:56;;;;;;;41.8;23.7;;;;;;;3.82;91.93359;939.1404;;;;
2022/12/01 04:24:24;;;;;;;40.4;22.7;;;;;;;3.84;91.76855;939.115;;;;
2022/12/01 04:26:49;;;;;;;40.6;23.4;;;;;;;3.81;91.65039;939.0991;;;;
2022/12/01 04:29:14;;;;;;;40.7;22.3;;;;;;;3.78;91.54395;939.0662;;;;
2022/12/01 04:31:39;;;;;;;40.1;22.3;;;;;;;3.63;91.52148;939.0719;;;;
2022/12/01 04:34:06;;;;;;;39.6;22.3;;;;;;;3.53;92.05078;938.9671;;;;
2022/12/01 04:36:31;;;;;;;40;21.9;;;;;;;3.46;92.95605;939.1102;;;;
2022/12/01 04:38:58;;;;;;;41;22.1;;;;;;;3.57;92.58887;939.1017;;;;
2022/12/01 04:41:23;;;;;;;37.7;21.6;;;;;;;3.62;92.20508;939.1116;;;;
2022/12/01 04:43:50;;;;;;;36.8;21;;;;;;;3.61;92.24805;939.1153;;;;
2022/12/01 04:46:15;;;;;;;34.6;20.8;;;;;;;3.64;92.17773;939.1267;;;;
2022/12/01 04:48:42;;;;;;;39.3;22.4;;;;;;;3.63;92.08398;939.0963;;;;
2022/12/01 04:51:06;;;;;;;35.9;21.8;;;;;;;3.67;91.93555;939.0286;;;;
2022/12/01 04:53:32;;;;;;;37.8;21.6;;;;;;;3.71;91.58398;938.9961;;;;
2022/12/01 04:55:57;;;;;;;36.3;21.2;;;;;;;3.74;91.68164;939.0617;;;;
2022/12/01 04:58:24;;;;;;;37.1;22.1;;;;;;;3.73;91.51172;939.0544;;;;
2022/12/01 05:00:49;;;;;;;37.9;21.3;;;;;;;3.76;91.41602;938.997;;;;
2022/12/01 05:03:19;;;;;;;35.8;21.3;;;;;;;3.76;91.23633;939.0524;;;;
2022/12/01 05:05:45;;;;;;;39.8;21.7;;;;;;;3.79;91.23047;939.0618;;;;
2022/12/01 05:08:11;;;;;;;37.8;20.9;;;;;;;3.66;91.75391;939.077;;;;
2022/12/01 05:10:36;;;;;;;37.3;21.2;;;;;;;3.53;91.47754;939.0861;;;;
2022/12/01 05:13:02;;;;;;;35.8;21.2;;;;;;;3.35;92.76367;939.1484;;;;
2022/12/01 05:15:29;;;;;;;39.7;21.9;;;;;;;3.33;92.88379;939.0964;;;;
2022/12/01 05:17:54;;;;;;;38.9;22.6;;;;;;;3.48;92.68164;939.0959;;;;
2022/12/01 05:22:48;;;;;;;35.2;21.8;;;;;;;3.44;92.52539;939.1504;;;;
2022/12/01 05:25:16;;;;;;;37.4;22.3;;;;;;;3.49;92.54883;939.127;;;;
2022/12/01 05:27:43;;;;;;;38.3;21.9;;;;;;;3.53;92.42188;939.1378;;;;
2022/12/01 05:30:09;;;;;;;34.9;20.8;;;;;;;3.53;92.25293;939.0631;;;;
2022/12/01 05:32:38;;;;;;;42.1;22.5;;;;;;;3.55;92.18066;939.0923;;;;
2022/12/01 05:35:04;;;;;;;40.4;23.6;;;;;;;3.55;92.0459;939.175;;;;
2022/12/01 05:37:33;;;;;;;42.4;23.4;;;;;;;3.46;92.27344;939.2458;;;;
2022/12/01 05:39:57;;;;;;;42.4;23.5;;;;;;;3.43;92.55664;939.2114;;;;
2022/12/01 05:42:23;;;;;;;44.5;23.9;;;;;;;3.44;92.49414;939.2332;;;;
2022/12/01 05:44:48;;;;;;;42.6;23.7;;;;;;;3.32;92.9375;939.2605;;;;
2022/12/01 05:47:17;;;;;;;46.8;24.5;;;;;;;3.35;93.13672;939.217;;;;
2022/12/01 05:49:42;;;;;;;44.4;25.2;;;;;;;3.31;93.25;939.283;;;;
2022/12/01 05:52:09;;;;;;;42.1;24.7;;;;;;;3.31;93.30664;939.3264;;;;
2022/12/01 05:54:34;;;;;;;44.3;24;;;;;;;3.32;93.27441;939.2975;;;;
2022/12/01 05:57:01;;;;;;;45.4;24.8;;;;;;;3.32;93.23145;939.2883;;;;
2022/12/01 05:59:26;;;;;;;47.2;25.1;;;;;;;3.24;93.7168;939.3228;;;;
2022/12/01 06:01:51;;;;;;;49.1;25.4;;;;;;;3.26;93.66699;939.3763;;;;
2022/12/01 06:04:17;;;;;;;48;26.3;;;;;;;3.15;94.18164;939.4176;;;;
2022/12/01 06:06:44;;;;;;;47.2;25.8;;;;;;;3.28;94.27539;939.4305;;;;
2022/12/01 06:09:09;;;;;;;50.3;26.2;;;;;;;3.3;94.25879;939.4622;;;;
2022/12/01 06:11:35;;;;;;;44.3;26;;;;;;;3.31;93.99121;939.4585;;;;
2022/12/01 06:14:00;;;;;;;47.2;26;;;;;;;3.14;94.13477;939.4713;;;;
2022/12/01 06:16:31;;;;;;;48.9;26.5;;;;;;;3.21;94.42969;939.5034;;;;
2022/12/01 06:18:59;;;;;;;51.7;26.9;;;;;;;3.14;94.5498;939.4603;;;;
2022/12/01 06:21:24;;;;;;;52.6;26.2;;;;;;;3.08;94.79395;939.4384;;;;
2022/12/01 06:23:52;;;;;;;51.5;26.9;;;;;;;3.17;94.65527;939.5037;;;;
2022/12/01 06:26:17;;;;;;;51.2;26.9;;;;;;;3.19;94.54883;939.5313;;;;
2022/12/01 06:28:43;;;;;;;52.5;27;;;;;;;3.22;94.44238;939.4874;;;;
2022/12/01 06:31:08;;;;;;;52.1;26.5;;;;;;;3.08;94.91504;939.5594;;;;
2022/12/01 06:33:35;;;;;;;53.8;27.4;;;;;;;2.98;95.20703;939.6085;;;;
2022/12/01 06:36:00;;;;;;;52.6;27.9;;;;;;;2.97;95.22754;939.657;;;;
2022/12/01 06:39:28;;;;;;;49.3;27;;;;;;;2.95;95.43652;939.649;;;;
2022/12/01 06:41:51;;;;;;;58.1;28.3;;;;;;;2.8;95.94043;939.6892;;;;
2022/12/01 06:44:17;;;;;;;50;26.6;;;;;;;2.69;96.8916;939.6345;;;;
2022/12/01 06:46:42;;;;;;;54.4;27.3;;;;;;;2.74;96.87012;939.7152;;;;
2022/12/01 06:49:10;;;;;;;54.4;28.9;;;;;;;2.79;96.8584;939.7227;;;;
2022/12/01 06:51:35;;;;;;;57.1;29;;;;;;;2.76;96.87598;939.7003;;;;
2022/12/01 06:54:02;;;;;;;57.9;29;;;;;;;2.8;97.05273;939.7148;;;;
2022/12/01 06:56:27;;;;;;;56.6;30.1;;;;;;;2.73;97.08105;939.7022;;;;
2022/12/01 06:58:52;;;;;;;60.2;29.2;;;;;;;2.72;96.99805;939.7277;;;;
2022/12/01 07:01:17;;;;;;;60.2;29.4;;;;;;;2.72;96.72949;939.7292;;;;
2022/12/01 07:03:45;;;;;;;56.1;28.3;;;;;;;2.71;96.58203;939.728;;;;
2022/12/01 07:06:10;;;;;;;59.1;29.9;;;;;;;2.74;96.74707;939.7576;;;;
2022/12/01 07:08:36;;;;;;;56.8;30.1;;;;;;;2.78;96.62207;939.7342;;;;
2022/12/01 07:11:01;;;;;;;60;29.1;;;;;;;2.84;96.28711;939.7273;;;;
2022/12/01 07:13:30;;;;;;;55.4;27.5;;;;;;;2.88;95.93652;939.8271;;;;
2022/12/01 07:15:55;;;;;;;58.5;29.3;;;;;;;2.89;95.7832;939.7562;;;;
2022/12/01 07:18:21;;;;;;;56.8;29.2;;;;;;;2.89;95.6377;939.8585;;;;
2022/12/01 07:20:48;;;;;;;58.7;28.5;;;;;;;2.88;95.59961;939.8334;;;;
2022/12/01 07:23:13;;;;;;;51.8;28.1;;;;;;;2.87;95.28613;939.8734;;;;
2022/12/01 07:25:41;;;;;;;58.4;28.8;;;;;;;2.9;95.47168;939.8982;;;;
2022/12/01 07:28:06;;;;;;;57.6;28.9;;;;;;;2.86;95.2373;939.887;;;;
2022/12/01 07:30:33;;;;;;;53.4;27.6;;;;;;;2.78;95.97168;940.0415;;;;
2022/12/01 07:32:58;;;;;;;57.6;27.4;;;;;;;2.81;95.89941;939.9889;;;;
2022/12/01 07:35:24;;;;;;;57.5;29.4;;;;;;;2.81;96.02344;939.9478;;;;
2022/12/01 07:37:49;;;;;;;53.1;27.9;;;;;;;2.78;96.14941;940.0114;;;;
2022/12/01 07:40:20;;;;;;;54.1;27.8;;;;;;;2.76;96.02246;940.0083;;;;
2022/12/01 07:42:49;;;;;;;52.6;27.8;;;;;;;2.79;95.84863;940.0269;;;;
2022/12/01 07:45:19;;;;;;;58;28;;;;;;;2.68;96.20508;940.0396;;;;
2022/12/01 07:47:45;;;;;;;57.8;28.4;;;;;;;2.71;96.22461;940.0435;;;;
2022/12/01 07:50:12;;;;;;;54.8;28;;;;;;;2.7;96.23438;940.0336;;;;
2022/12/01 07:52:37;;;;;;;53.7;26.5;;;;;;;2.85;96.27637;940.0051;;;;
2022/12/01 07:55:05;;;;;;;49.3;26.9;;;;;;;2.95;95.67188;940.0234;;;;
2022/12/01 07:57:30;;;;;;;55.3;27.7;;;;;;;3.03;95.58984;940.0026;;;;
2022/12/01 07:59:57;;;;;;;53.8;27.2;;;;;;;3.12;94.92578;939.9813;;;;
2022/12/01 08:02:22;;;;;;;55;27.9;;;;;;;3.22;94.36426;939.9797;;;;
2022/12/01 08:07:30;;;;;;;52.5;27.5;;;;;;;3.09;93.91895;939.9916;;;;
2022/12/01 08:09:56;;;;;;;53.3;26.8;;;;;;;3.19;93.89746;939.9744;;;;
2022/12/01 08:12:23;;;;;;;53.1;27.9;;;;;;;3.31;93.4834;939.9227;;;;
2022/12/01 08:14:48;;;;;;;50.8;27;;;;;;;3.26;93.27344;939.9391;;;;
2022/12/01 08:17:14;;;;;;;52.4;26.2;;;;;;;3.33;93.21094;939.9497;;;;
2022/12/01 08:19:43;;;;;;;51;26.9;;;;;;;3.24;93.17773;939.9396;;;;
2022/12/01 08:22:12;;;;;;;51.4;27;;;;;;;3.28;93.08496;939.9333;;;;
2022/12/01 08:24:37;;;;;;;51.4;26.3;;;;;;;3.39;92.99609;939.9595;;;;
2022/12/01 08:27:06;;;;;;;50.2;25.9;;;;;;;3.36;92.79004;939.9997;;;;
2022/12/01 08:29:36;;;;;;;49.6;27.3;;;;;;;3.47;92.75977;940.0522;;;;
2022/12/01 08:32:02;;;;;;;48.1;25.2;;;;;;;3.49;92.60449;940.033;;;;
2022/12/01 08:34:27;;;;;;;47.1;25;;;;;;;3.42;92.78125;939.9872;;;;
2022/12/01 08:36:57;;;;;;;47.6;24.3;;;;;;;3.48;92.40039;939.9926;;;;
2022/12/01 08:39:22;;;;;;;46;25.5;;;;;;;3.49;92.58398;940.0042;;;;
2022/12/01 08:41:50;;;;;;;46.6;25.3;;;;;;;3.51;92.03613;939.9821;;;;
2022/12/01 08:44:15;;;;;;;50.2;25.8;;;;;;;3.6;92.28027;940.0317;;;;
2022/12/01 08:46:44;;;;;;;47.4;24.6;;;;;;;3.59;91.55664;940.0754;;;;
2022/12/01 08:49:09;;;;;;;47.7;24.3;;;;;;;3.6;91.62793;940.0672;;;;
2022/12/01 08:51:37;;;;;;;45.5;24.5;;;;;;;3.71;91.80859;940.0527;;;;
2022/12/01 08:54:02;;;;;;;45.8;24.7;;;;;;;3.79;91.42188;939.9905;;;;
2022/12/01 08:56:29;;;;;;;44;23.6;;;;;;;3.76;91.29199;940.0302;;;;
2022/12/01 08:58:54;;;;;;;43.9;24.1;;;;;;;3.82;90.98926;940.0272;;;;
2022/12/01 09:01:21;;;;;;;44.8;24.9;;;;;;;3.91;90.8291;940.0469;;;;
2022/12/01 09:03:46;;;;;;;45;24.6;;;;;;;3.86;90.4707;940.0958;;;;
2022/12/01 09:06:14;;;;;;;45.6;24;;;;;;;3.82;91.07031;940.04;;;;
2022/12/01 09:08:39;;;;;;;47.1;24.3;;;;;;;3.89;90.9707;940.1086;;;;
2022/12/01 09:11:06;;;;;;;41;23.2;;;;;;;3.82;90.74219;940.0634;;;;
2022/12/01 09:13:31;;;;;;;41.3;22.6;;;;;;;3.68;91.36523;940.1644;;;;
2022/12/01 09:16:06;;;;;;;40.5;23;;;;;;;3.7;91.07813;940.1447;;;;
2022/12/01 09:18:33;;;;;;;43;23.1;;;;;;;3.7;90.85156;940.1184;;;;
2022/12/01 09:20:58;;;;;;;45.8;24;;;;;;;3.68;91.12891;940.1917;;;;
2022/12/01 09:23:23;;;;;;;40.2;22.8;;;;;;;3.65;91.21289;940.1941;;;;
2022/12/01 09:25:49;;;;;;;46.4;24.2;;;;;;;3.71;90.82031;940.1858;;;;
2022/12/01 09:28:14;;;;;;;40.9;22.4;;;;;;;3.7;90.80859;940.0691;;;;
2022/12/01 09:30:43;;;;;;;46.3;23.9;;;;;;;3.57;90.81348;940.1671;;;;
2022/12/01 09:33:08;;;;;;;41.7;23.8;;;;;;;3.48;91.43457;940.1248;;;;
2022/12/01 09:35:39;;;;;;;42.8;23;;;;;;;3.58;91.60156;940.0372;;;;
2022/12/01 09:38:06;;;;;;;44.1;24.3;;;;;;;3.55;91.69727;940.0906;;;;
2022/12/01 09:40:31;;;;;;;43.5;23.8;;;;;;;3.69;91.75781;940.0818;;;;
2022/12/01 09:43:01;;;;;;;46.7;24.9;;;;;;;3.76;91.50586;940.053;;;;
2022/12/01 09:45:28;;;;;;;45.6;24.2;;;;;;;3.85;91.06445;940.0481;;;;
2022/12/01 09:48:02;;;;;;;40.6;23.5;;;;;;;3.89;90.41992;939.9826;;;;
2022/12/01 09:50:28;;;;;;;43.5;24.6;;;;;;;3.72;90.68945;940.048;;;;
2022/12/01 09:52:52;;;;;;;46.9;25.3;;;;;;;3.56;91.39551;940.0539;;;;
2022/12/01 09:55:19;;;;;;;42.3;23.5;;;;;;;3.69;91.86133;940.0514;;;;
2022/12/01 09:57:44;;;;;;;46.5;25.5;;;;;;;3.75;91.84082;939.9495;;;;
2022/12/01 10:00:12;;;;;;;41.3;23.6;;;;;;;3.72;91.54102;939.9869;;;;
2022/12/01 10:02:38;;;;;;;43.4;23.4;;;;;;;3.65;91.59473;939.9489;;;;
2022/12/01 10:05:05;;;;;;;45.4;23.8;;;;;;;3.65;92.29199;939.8851;;;;
2022/12/01 10:07:30;;;;;;;40.7;22.8;;;;;;;3.79;91.6582;939.8572;;;;
2022/12/01 10:09:55;;;;;;;43.3;23.3;;;;;;;3.89;91.43164;939.8638;;;;
2022/12/01 10:12:21;;;;;;;43.6;23;;;;;;;3.81;91.15625;939.8378;;;;
2022/12/01 10:14:46;;;;;;;42.7;23.2;;;;;;;3.83;90.68945;939.8095;;;;
2022/12/01 10:17:11;;;;;;;41.7;23.2;;;;;;;3.89;90.55664;939.8158;;;;
2022/12/01 10:19:36;;;;;;;41.7;21.9;;;;;;;3.9;90.50293;939.7727;;;;
2022/12/01 10:22:01;;;;;;;41.5;22.5;;;;;;;4.02;90.62891;939.7349;;;;
2022/12/01 10:24:26;;;;;;;38.6;21.9;;;;;;;4.17;90.13086;939.7441;;;;
2022/12/01 10:26:54;;;;;;;41;22.6;;;;;;;4.22;89.375;939.6783;;;;
2022/12/01 10:29:20;;;;;;;39.3;21.5;;;;;;;4.23;89.27832;939.7048;;;;
2022/12/01 10:31:44;;;;;;;35.7;21.4;;;;;;;4.25;88.67383;939.6778;;;;
2022/12/01 10:34:11;;;;;;;39.6;21.3;;;;;;;4.24;88.75098;939.6286;;;;
2022/12/01 10:36:36;;;;;;;38.4;21.9;;;;;;;4.03;89.26074;939.6171;;;;
2022/12/01 10:39:03;;;;;;;41;22;;;;;;;4.02;90.07813;939.6026;;;;
2022/12/01 10:41:28;;;;;;;41.1;21.7;;;;;;;3.99;90.03613;939.5972;;;;
2022/12/01 10:43:58;;;;;;;43.2;22.9;;;;;;;4.09;89.69727;939.6585;;;;
2022/12/01 10:46:39;;;;;;;40.9;23.3;;;;;;;4.09;89.9248;939.5421;;;;
2022/12/01 10:49:04;;;;;;;38.5;21.5;;;;;;;4.06;89.74805;939.5306;;;;
2022/12/01 10:51:29;;;;;;;42.1;23.9;;;;;;;3.97;90.0791;939.502;;;;
2022/12/01 10:53:54;;;;;;;41.2;21.7;;;;;;;4.08;89.99902;939.6116;;;;
2022/12/01 10:56:23;;;;;;;40.4;21.7;;;;;;;3.98;90.14648;939.5542;;;;
2022/12/01 10:58:48;;;;;;;41.6;21.9;;;;;;;4.05;90.41113;939.5879;;;;
2022/12/01 11:01:13;;;;;;;38.9;21.5;;;;;;;4.19;89.84375;939.5266;;;;
2022/12/01 11:03:39;;;;;;;36;21;;;;;;;4.16;88.8916;939.5341;;;;
2022/12/01 11:06:06;;;;;;;38.4;21.7;;;;;;;3.95;90.3457;939.5439;;;;
2022/12/01 11:08:31;;;;;;;40.2;22.4;;;;;;;4.1;90.17188;939.5366;;;;
2022/12/01 11:10:57;;;;;;;41.9;22;;;;;;;4.17;89.59082;939.4493;;;;
2022/12/01 11:13:23;;;;;;;37;21.8;;;;;;;4.11;89.44434;939.507;;;;
2022/12/01 11:15:48;;;;;;;37.9;21;;;;;;;4.21;88.87988;939.514;;;;
2022/12/01 11:18:13;;;;;;;35.6;20.2;;;;;;;4.34;88.25391;939.4492;;;;
2022/12/01 11:20:39;;;;;;;35.9;19.8;;;;;;;4.12;88.26367;939.4838;;;;
2022/12/01 11:23:07;;;;;;;38;21.1;;;;;;;4.06;88.70215;939.3928;;;;
2022/12/01 11:25:32;;;;;;;38.5;21.2;;;;;;;3.97;88.9873;939.383;;;;
2022/12/01 11:28:00;;;;;;;39.9;21.3;;;;;;;3.83;89.7793;939.3961;;;;
2022/12/01 11:30:28;;;;;;;41.7;21;;;;;;;3.72;90.90039;939.3758;;;;
2022/12/01 11:32:51;;;;;;;40.7;21.9;;;;;;;3.79;90.9834;939.4256;;;;
2022/12/01 11:35:21;;;;;;;37.3;20.9;;;;;;;3.81;90.2002;939.4339;;;;
2022/12/01 11:37:51;;;;;;;37.5;20.4;;;;;;;3.89;90.04883;939.4186;;;;
2022/12/01 11:40:17;;;;;;;38.7;21.6;;;;;;;4;89.9502;939.3337;;;;
2022/12/01 11:42:43;;;;;;;33;19.5;;;;;;;3.97;89.52637;939.3175;;;;
2022/12/01 11:45:07;;;;;;;37.4;20.6;;;;;;;4.2;89.20508;939.322;;;;
2022/12/01 11:47:33;;;;;;;34.2;20;;;;;;;4.18;88.38867;939.3109;;;;
2022/12/01 11:49:58;;;;;;;35.3;19.4;;;;;;;3.99;88.6416;939.3459;;;;
2022/12/01 11:52:23;;;;;;;33.7;19.1;;;;;;;3.82;89.56152;939.3272;;;;
2022/12/01 11:54:49;;;;;;;38;20.3;;;;;;;3.65;90.38184;939.3317;;;;
2022/12/01 11:57:14;;;;;;;37.4;21.3;;;;;;;3.75;90.23438;939.3337;;;;
2022/12/01 11:59:39;;;;;;;37.9;21.5;;;;;;;3.78;89.8916;939.2263;;;;
2022/12/01 12:02:07;;;;;;;39.2;20.5;;;;;;;3.77;90.43848;939.3147;;;;
2022/12/01 12:04:32;;;;;;;38.8;20.1;;;;;;;3.79;89.99414;939.265;;;;
2022/12/01 12:06:58;;;;;;;37.7;20.2;;;;;;;3.88;89.84668;939.2427;;;;
2022/12/01 12:09:23;;;;;;;37.2;19.5;;;;;;;3.96;89.19824;939.196;;;;
2022/12/01 12:11:50;;;;;;;35.5;19.6;;;;;;;4.03;88.56152;939.2065;;;;
2022/12/01 12:14:16;;;;;;;35.8;20.5;;;;;;;3.93;88.92285;939.217;;;;
2022/12/01 12:16:41;;;;;;;36.5;20.5;;;;;;;3.99;88.81055;939.178;;;;
2022/12/01 12:19:06;;;;;;;36.6;20.7;;;;;;;3.93;88.59668;939.1806;;;;
2022/12/01 12:21:33;;;;;;;34.7;19.4;;;;;;;3.87;89.35742;939.2595;;;;
2022/12/01 12:23:58;;;;;;;34.2;19.8;;;;;;;3.79;89.36523;939.2053;;;;
2022/12/01 12:26:26;;;;;;;32;19.7;;;;;;;3.91;89.20996;939.2514;;;;
2022/12/01 12:28:51;;;;;;;35.5;19.1;;;;;;;3.98;88.61816;939.1651;;;;
2022/12/01 12:31:16;;;;;;;34.4;19.3;;;;;;;4.04;88.87793;939.2336;;;;
2022/12/01 12:33:44;;;;;;;35;19.3;;;;;;;4.05;88.94531;939.1976;;;;
2022/12/01 12:36:10;;;;;;;35.8;19.8;;;;;;;4.07;88.44336;939.2314;;;;
2022/12/01 12:38:36;;;;;;;34.4;18.8;;;;;;;4.06;88.29688;939.2186;;;;
2022/12/01 12:41:01;;;;;;;33.1;17.8;;;;;;;4.05;88.0127;939.2181;;;;
2022/12/01 12:43:26;;;;;;;33.2;18.8;;;;;;;4.06;88.01563;939.2322;;;;
2022/12/01 12:45:51;;;;;;;31.1;18.1;;;;;;;3.88;87.96973;939.2104;;;;
2022/12/01 12:48:18;;;;;;;34.4;19.7;;;;;;;3.72;89.06934;939.2672;;;;
2022/12/01 12:50:43;;;;;;;33.3;19.1;;;;;;;3.78;89.4082;939.2609;;;;
2022/12/01 12:53:08;;;;;;;34.4;19.3;;;;;;;3.78;89.31836;939.2798;;;;
2022/12/01 12:55:33;;;;;;;32.3;19.1;;;;;;;3.85;89.01855;939.2629;;;;
2022/12/01 12:57:58;;;;;;;30.8;18.4;;;;;;;3.92;88.67383;939.2899;;;;
2022/12/01 13:00:26;;;;;;;36.3;19.7;;;;;;;3.79;88.99609;939.2488;;;;
2022/12/01 13:02:51;;;;;;;32.7;19;;;;;;;3.75;89.23145;939.2603;;;;
2022/12/01 13:05:16;;;;;;;34.4;19.2;;;;;;;3.62;89.5332;939.2339;;;;
2022/12/01 13:07:41;;;;;;;35;19;;;;;;;3.62;90.12695;939.2636;;;;
2022/12/01 13:10:06;;;;;;;36.3;20.2;;;;;;;3.63;89.87012;939.2397;;;;
2022/12/01 13:12:37;;;;;;;33.3;18.4;;;;;;;3.71;89.57227;939.1747;;;;
2022/12/01 13:15:02;;;;;;;33.6;18.5;;;;;;;3.78;89.63281;939.2277;;;;
2022/12/01 13:17:30;;;;;;;31.3;19;;;;;;;3.83;89.37402;939.2123;;;;
2022/12/01 13:19:55;;;;;;;35.8;20.2;;;;;;;3.75;89.88574;939.1362;;;;
2022/12/01 13:22:23;;;;;;;31.1;19.1;;;;;;;3.75;90.05469;939.207;;;;
2022/12/01 13:24:48;;;;;;;33.2;19.1;;;;;;;3.63;91.02734;939.2113;;;;
2022/12/01 13:27:13;;;;;;;32.3;19.1;;;;;;;3.72;90.86719;939.1247;;;;
2022/12/01 13:29:38;;;;;;;37.7;20.4;;;;;;;3.77;90.91016;939.2233;;;;
2022/12/01 13:32:06;;;;;;;35.9;20;;;;;;;3.64;90.59082;939.2273;;;;
2022/12/01 13:34:30;;;;;;;36.7;19.5;;;;;;;3.66;90.58398;939.2463;;;;
2022/12/01 13:36:56;;;;;;;38.2;21.4;;;;;;;3.69;90.7373;939.1553;;;;
2022/12/01 13:39:21;;;;;;;34.2;19.6;;;;;;;3.57;90.73535;939.2238;;;;
2022/12/01 13:41:48;;;;;;;39.5;21.4;;;;;;;3.56;90.49512;939.1666;;;;
2022/12/01 13:44:15;;;;;;;36.8;20.6;;;;;;;3.48;91.16504;939.1017;;;;
2022/12/01 13:46:40;;;;;;;36.5;19.8;;;;;;;3.42;91.35352;939.185;;;;
2022/12/01 13:49:05;;;;;;;38.8;20.5;;;;;;;3.41;91.48438;939.1909;;;;
2022/12/01 13:51:30;;;;;;;38.8;21;;;;;;;3.53;91.28711;939.2087;;;;
2022/12/01 13:53:55;;;;;;;38.8;20.7;;;;;;;3.58;91.15234;939.2216;;;;
2022/12/01 13:56:20;;;;;;;38.1;21.1;;;;;;;3.46;91.19238;939.222;;;;
2022/12/01 13:58:48;;;;;;;41.3;21.3;;;;;;;3.6;91.17871;939.2318;;;;
2022/12/01 14:01:13;;;;;;;40.7;22.1;;;;;;;3.46;91.0918;939.2252;;;;
2022/12/01 14:03:39;;;;;;;39.8;22.4;;;;;;;3.56;90.92188;939.2075;;;;
2022/12/01 14:06:09;;;;;;;39;21.1;;;;;;;3.6;91.22363;939.216;;;;
2022/12/01 14:08:34;;;;;;;38.2;22.3;;;;;;;3.59;90.61719;939.2167;;;;
2022/12/01 14:10:59;;;;;;;37.7;21.5;;;;;;;3.52;90.47656;939.1848;;;;
2022/12/01 14:13:24;;;;;;;38.5;21.3;;;;;;;3.44;90.71777;939.226;;;;
2022/12/01 14:15:53;;;;;;;40.4;22;;;;;;;3.45;91.25977;939.1484;;;;
2022/12/01 14:18:18;;;;;;;40.2;22.7;;;;;;;3.48;91.26563;939.1859;;;;
2022/12/01 14:20:43;;;;;;;41.3;22.1;;;;;;;3.56;91.05664;939.1752;;;;
2022/12/01 14:23:12;;;;;;;38.3;21.5;;;;;;;3.52;90.80371;939.1527;;;;